Monte Argentario, Italy

12:23 AM CET on January 18, 2017 (GMT +0100)
Via Panoramica | | Change Station
Active Advisory: >>

Elev 531 ft 42.42 °N, 11.10 °E | Updated 3 minutes ago

Mostly Cloudy
Mostly Cloudy
43.5 °F
Feels Like 44 °F
N
0.0
Wind Variable Wind from North
Gusts 0.6 mph

Today
High -- | Low -- °F
--% Chance of Precip.
Yesterday
High -- | Low -- °F
Precip. -- in
Pressure 29.86 in
Visibility 6.2 miles
Clouds Few 4000 ft
Windchill 44 °F
Dew Point 33 °F
Humidity 67%
Rainfall 0.00 in
Snow Depth Not available.
7:40 AM 5:11 PM
Waning Gibbous, 69% visible
METAR LIRS 172255Z 02020G31KT 9999 FEW040 06/M01 Q1011 RMK OVC BKN100 VIS MIN 9999 WIND THR03 02018G29KT WIND THR21 02019G31KT BLU
Pressure 29.86 in
Visibility 6.2 miles
Clouds Few 4000 ft
Windchill 44 °F
Dew Point 33 °F
Humidity 67%
Rainfall 0.00 in
Snow Depth Not available.
7:40 AM 5:11 PM
Waning Gibbous, 69% visible
METAR LIRS 172255Z 02020G31KT 9999 FEW040 06/M01 Q1011 RMK OVC BKN100 VIS MIN 9999 WIND THR03 02018G29KT WIND THR21 02019G31KT BLU

Get Your Daily Forecast Email!

Thanks for signing up!

Be on the lookout for a verification email in your inbox.

You'll start receiving the daily forecast at 8 AM.

×

10-Day Weather Forecast

×

Almanac

Astronomy

Jan. 18, 2017 Rise Set
Actual Time
Civil Twilight
Nautical Twilight
Astronomical Twilight
Moon
Length of Visible Light
Length of Day
Tomorrow will be .
, % of the Moon is Illuminated

Today's Extremes

Country Highs Country Lows

Community

WunderPhotos

Upload Photos

1,962,540 photos uploaded!

WunderBlog® & News

Nearby

Air Quality

  Air Quality AQ Index Pollutant
Not available.

Snow Depth

Station Depth Elevation

Earthquake Activity

City Distance Mag. Time & Date
Minimum magnitude displayed is 2.5.

Coastal Water Temperatures

Place Temperature

Stations

Nearby Weather Stations

Station Location Temp. Windchill Dew Point Humidity Wind Precip. Elev Updated Type